Time;durP1;ratioP1;P1;durP2;ratioP2;P2;SDS_P1;SDS_P2;PMS_P1;PMS_P2;Temp;Humidity;BMP_temperature;BMP_pressure;BME280_temperature;BME280_humidity;BME280_pressure;Samples;Min_cycle;Max_cycle;Signal;HPM_P1;HPM_P2
2024/04/16 00:02:15;;;;;;;;;14.00;11.00;;;;;7.38;77.53;98674.04;112416;233;41193;-56
2024/04/16 00:04:53;;;;;;;;;13.00;10.00;;;;;7.42;77.58;98671.88;112255;233;169855;-56
2024/04/16 00:07:34;;;;;;;;;11.75;9.75;;;;;7.41;77.52;98667.91;112358;233;40452;-56
2024/04/16 00:10:09;;;;;;;;;11.00;9.00;;;;;7.44;77.45;98667.50;112405;233;41468;-58
2024/04/16 00:12:50;;;;;;;;;7.50;5.75;;;;;7.43;77.20;98659.39;112223;234;169464;-58
2024/04/16 00:15:25;;;;;;;;;13.00;10.00;;;;;7.45;77.20;98657.32;112423;233;40757;-57
2024/04/16 00:18:01;;;;;;;;;10.00;8.00;;;;;7.47;77.00;98642.02;112287;233;169808;-57
2024/04/16 00:20:36;;;;;;;;;12.00;9.00;;;;;7.48;77.26;98626.42;112502;233;40412;-56
2024/04/16 00:23:25;;;;;;;;;12.33;10.00;;;;;7.52;77.32;98594.34;112463;233;169177;-60
2024/04/16 00:26:03;;;;;;;;;15.33;10.67;;;;;7.55;77.51;98575.89;112602;237;40104;-60
2024/04/16 00:28:44;;;;;;;;;12.33;8.33;;;;;7.57;77.40;98570.02;112371;237;169645;-59
2024/04/16 00:31:25;;;;;;;;;10.00;8.00;;;;;7.60;77.25;98574.92;112471;236;41239;-60
2024/04/16 00:33:59;;;;;;;;;11.33;9.00;;;;;7.63;77.44;98577.80;112505;236;40869;-60
2024/04/16 00:36:39;;;;;;;;;9.67;7.00;;;;;7.59;77.50;98559.09;112306;234;169160;-60
2024/04/16 00:39:15;;;;;;;;;10.00;8.00;;;;;7.61;77.34;98546.80;112399;233;40889;-56
2024/04/16 00:41:55;;;;;;;;;12.00;10.00;;;;;7.64;77.42;98553.23;112260;234;169152;-58
2024/04/16 00:44:29;;;;;;;;;12.25;10.00;;;;;7.66;77.71;98553.52;112411;233;40156;-56
2024/04/16 00:47:06;;;;;;;;;15.75;13.25;;;;;7.74;77.76;98553.63;112252;233;168977;-56
2024/04/16 00:49:41;;;;;;;;;14.00;11.00;;;;;7.77;77.60;98570.11;112458;237;40876;-59
2024/04/16 00:52:18;;;;;;;;;9.67;8.00;;;;;7.80;77.60;98595.85;112462;233;40357;-60
2024/04/16 00:54:54;;;;;;;;;12.00;9.00;;;;;7.82;77.85;98620.98;112583;235;40614;-56
2024/04/16 00:57:31;;;;;;;;;14.25;11.25;;;;;7.82;77.78;98622.39;112390;237;41279;-56
2024/04/16 01:00:09;;;;;;;;;13.33;10.33;;;;;7.82;78.13;98610.77;112495;237;168216;-60
2024/04/16 01:02:46;;;;;;;;;13.00;10.00;;;;;7.79;78.48;98603.63;112563;233;41377;-60
2024/04/16 01:05:29;;;;;;;;;13.00;11.00;;;;;7.79;79.69;98583.09;112318;234;169415;-57
2024/04/16 01:08:09;;;;;;;;;13.67;11.00;;;;;7.78;79.46;98568.16;112434;236;40925;-59
2024/04/16 01:10:45;;;;;;;;;14.00;12.00;;;;;7.79;80.42;98577.61;112285;236;169450;-58
2024/04/16 01:13:23;;;;;;;;;17.00;13.00;;;;;7.81;80.67;98587.11;112415;234;39799;-57
2024/04/16 01:15:58;;;;;;;;;18.00;14.00;;;;;7.80;80.41;98596.02;112411;237;40792;-56
2024/04/16 01:18:36;;;;;;;;;14.33;12.00;;;;;7.84;80.84;98610.63;112309;234;169284;-57
2024/04/16 01:21:12;;;;;;;;;17.00;13.33;;;;;7.85;81.00;98613.89;112378;237;41031;-56
2024/04/16 01:23:48;;;;;;;;;14.00;12.00;;;;;7.88;81.10;98625.30;112277;233;169230;-59
2024/04/16 01:26:24;;;;;;;;;16.67;13.00;;;;;7.88;81.25;98637.86;112422;234;39935;-59
2024/04/16 01:29:02;;;;;;;;;16.67;13.33;;;;;7.89;81.77;98674.67;112319;235;168958;-61
2024/04/16 01:31:37;;;;;;;;;19.00;15.75;;;;;7.88;82.20;98684.69;112646;233;40407;-60
2024/04/16 01:34:12;;;;;;;;;17.75;14.00;;;;;7.92;82.14;98661.14;112447;233;42479;-59
2024/04/16 01:36:48;;;;;;;;;13.00;9.50;;;;;7.94;82.37;98632.02;112367;234;169281;-59
2024/04/16 01:39:26;;;;;;;;;17.00;13.00;;;;;7.96;82.24;98609.70;112473;236;40623;-59
2024/04/16 01:42:05;;;;;;;;;16.00;13.00;;;;;7.95;82.39;98580.17;112287;236;169220;-59
2024/04/16 01:44:45;;;;;;;;;16.00;13.00;;;;;7.89;82.52;98556.67;112456;233;40345;-55
2024/04/16 01:47:21;;;;;;;;;16.00;13.00;;;;;7.83;83.12;98548.82;112285;237;169085;-55
2024/04/16 01:49:56;;;;;;;;;14.00;11.00;;;;;7.74;83.37;98545.94;112481;237;40748;-56
2024/04/16 01:52:34;;;;;;;;;16.00;12.00;;;;;7.73;83.25;98549.45;112322;237;173662;-57
2024/04/16 01:55:08;;;;;;;;;15.00;11.00;;;;;7.69;83.51;98541.77;112492;237;41900;-55
2024/04/16 01:57:45;;;;;;;;;15.00;13.00;;;;;7.61;83.64;98531.95;112436;233;40474;-55
2024/04/16 02:00:27;;;;;;;;;17.00;13.00;;;;;7.57;84.07;98522.77;112443;237;169378;-54
2024/04/16 02:03:04;;;;;;;;;21.00;17.00;;;;;7.56;84.05;98526.41;112594;235;39887;-56
2024/04/16 02:05:40;;;;;;;;;16.25;12.75;;;;;7.57;83.89;98527.73;112270;237;169513;-56
2024/04/16 02:08:18;;;;;;;;;20.00;15.25;;;;;7.56;84.21;98532.36;112453;236;41339;-58
2024/04/16 02:11:02;;;;;;;;;18.00;15.00;;;;;7.55;84.59;98521.95;112315;236;169642;-58
2024/04/16 02:13:42;;;;;;;;;16.50;14.00;;;;;7.55;84.51;98514.55;112308;236;40126;-54
2024/04/16 02:16:18;;;;;;;;;18.00;15.00;;;;;7.56;84.39;98507.27;112398;233;40736;-54
2024/04/16 02:19:00;;;;;;;;;11.50;9.50;;;;;7.56;84.57;98506.23;112584;237;40241;-58
2024/04/16 02:21:40;;;;;;;;;21.33;16.67;;;;;7.53;84.85;98498.23;112461;233;40515;-59
2024/04/16 02:24:22;;;;;;;;;20.00;16.00;;;;;7.51;84.96;98480.19;112155;237;169553;-57
2024/04/16 02:27:04;;;;;;;;;18.00;15.00;;;;;7.51;85.12;98472.00;112427;232;39847;-57
2024/04/16 02:29:46;;;;;;;;;18.00;15.00;;;;;7.47;85.15;98461.61;112294;236;169771;-54
2024/04/16 02:32:29;;;;;;;;;19.00;15.00;;;;;7.43;85.24;98446.64;112306;237;39892;-55
2024/04/16 02:35:07;;;;;;;;;16.00;11.00;;;;;7.36;85.34;98443.27;112259;237;169549;-55
2024/04/16 02:37:42;;;;;;;;;19.33;17.00;;;;;7.33;85.33;98434.35;112414;234;40523;-55
2024/04/16 02:40:19;;;;;;;;;18.33;15.00;;;;;7.25;85.36;98430.89;112439;233;40327;-55
2024/04/16 02:43:02;;;;;;;;;22.00;17.25;;;;;7.16;85.30;98424.47;112583;235;42506;-56
2024/04/16 02:45:41;;;;;;;;;26.67;18.00;;;;;7.05;85.64;98433.60;112445;233;41634;-56
2024/04/16 02:48:15;;;;;;;;;14.00;11.00;;;;;6.99;85.89;98441.48;112318;236;169052;-57
2024/04/16 02:51:02;;;;;;;;;22.00;18.00;;;;;7.00;86.16;98441.85;112539;236;40860;-57
2024/04/16 02:53:36;;;;;;;;;27.00;21.67;;;;;7.03;86.15;98435.02;112330;236;169998;-56
2024/04/16 02:56:11;;;;;;;;;26.33;18.67;;;;;7.09;86.62;98440.44;112370;233;41716;-57
2024/04/16 02:58:48;;;;;;;;;31.33;23.33;;;;;7.11;86.65;98430.96;112273;236;169723;-58
2024/04/16 03:01:23;;;;;;;;;29.25;22.75;;;;;7.14;86.70;98436.41;112462;236;40136;-58
2024/04/16 03:04:00;;;;;;;;;26.50;21.00;;;;;7.23;87.23;98434.38;112435;233;40466;-55
2024/04/16 03:06:39;;;;;;;;;17.00;13.00;;;;;7.31;87.48;98439.58;112378;233;170182;-55
2024/04/16 03:09:15;;;;;;;;;20.50;15.25;;;;;7.39;87.61;98437.31;112600;232;40451;-57
2024/04/16 03:11:50;;;;;;;;;17.00;14.00;;;;;7.43;87.77;98428.95;112307;232;169588;-57
2024/04/16 03:14:28;;;;;;;;;21.00;17.50;;;;;7.51;87.93;98430.14;112551;232;40265;-55
2024/04/16 03:17:04;;;;;;;;;31.00;22.00;;;;;7.55;88.36;98429.52;112364;232;169534;-55
2024/04/16 03:19:41;;;;;;;;;22.25;16.00;;;;;7.56;88.13;98424.17;112504;236;40920;-56
2024/04/16 03:22:20;;;;;;;;;25.00;19.00;;;;;7.57;88.27;98427.94;112598;232;40530;-56
2024/04/16 03:25:00;;;;;;;;;26.00;21.00;;;;;7.65;88.34;98426.10;112249;236;169285;-57
2024/04/16 03:27:41;;;;;;;;;22.50;18.00;;;;;7.67;88.61;98425.80;112447;234;41208;-57
2024/04/16 03:30:22;;;;;;;;;26.00;20.00;;;;;7.76;88.66;98419.19;112241;234;170485;-55
2024/04/16 03:33:03;;;;;;;;;21.00;17.50;;;;;7.79;88.85;98401.54;112632;237;40152;-55
2024/04/16 03:35:39;;;;;;;;;20.33;17.00;;;;;7.82;88.72;98405.61;112220;234;169565;-54
2024/04/16 03:38:21;;;;;;;;;17.00;13.00;;;;;7.84;88.78;98404.98;112447;233;41897;-58
2024/04/16 03:41:01;;;;;;;;;23.33;19.00;;;;;7.85;88.73;98394.21;112288;233;169565;-59
2024/04/16 03:43:40;;;;;;;;;21.33;17.00;;;;;7.83;88.83;98397.91;112416;233;39820;-56
2024/04/16 03:46:19;;;;;;;;;20.00;16.33;;;;;7.77;88.91;98403.21;112357;233;39941;-55
2024/04/16 03:49:00;;;;;;;;;25.67;20.00;;;;;7.72;89.34;98398.79;112331;234;41810;-55
2024/04/16 03:51:34;;;;;;;;;23.75;19.75;;;;;7.77;89.23;98402.06;112412;233;41543;-55
2024/04/16 03:54:09;;;;;;;;;19.00;16.00;;;;;7.77;89.45;98400.29;112257;233;169575;-58
2024/04/16 03:56:49;;;;;;;;;24.00;19.00;;;;;7.80;89.45;98403.69;112392;237;39973;-56
2024/04/16 04:01:00;;;;;;;;;26.00;21.00;;;;;7.83;89.38;98408.38;112287;237;169636;-55
2024/04/16 04:02:53;;;;;;;;;18.67;16.00;;;;;7.90;89.63;98418.04;112396;233;40080;-55
2024/04/16 04:05:30;;;;;;;;;26.00;20.33;;;;;7.94;89.80;98428.27;112323;237;169523;-55
2024/04/16 04:08:06;;;;;;;;;22.00;18.00;;;;;7.99;89.75;98440.62;112450;237;40039;-57
2024/04/16 04:10:47;;;;;;;;;25.00;20.00;;;;;8.06;90.16;98449.15;112317;233;169759;-57
2024/04/16 04:13:25;;;;;;;;;24.00;19.00;;;;;8.15;90.19;98449.11;112464;233;41593;-58
2024/04/16 04:16:01;;;;;;;;;25.00;20.00;;;;;8.18;89.94;98457.36;112451;233;40306;-59
2024/04/16 04:18:37;;;;;;;;;23.00;18.67;;;;;8.21;90.12;98467.30;112253;235;169708;-57
2024/04/16 04:21:19;;;;;;;;;19.00;15.00;;;;;8.24;90.48;98466.04;112469;233;40999;-59
2024/04/16 04:23:58;;;;;;;;;26.50;20.50;;;;;8.29;90.16;98464.77;112356;237;169379;-55
2024/04/16 04:26:37;;;;;;;;;23.25;17.25;;;;;8.32;90.40;98472.20;112398;237;40136;-55
2024/04/16 04:29:11;;;;;;;;;21.00;18.00;;;;;8.40;90.68;98470.67;112242;233;169851;-58
2024/04/16 04:31:50;;;;;;;;;25.00;18.75;;;;;8.45;90.60;98469.34;112401;233;40058;-57
2024/04/16 04:34:27;;;;;;;;;28.00;20.00;;;;;8.48;90.36;98481.11;112380;233;40493;-55
2024/04/16 04:37:02;;;;;;;;;20.33;16.33;;;;;8.49;90.42;98484.40;112588;237;42104;-55
2024/04/16 04:39:36;;;;;;;;;22.25;18.00;;;;;8.47;90.28;98490.96;112479;236;40086;-54
2024/04/16 04:42:10;;;;;;;;;17.33;13.00;;;;;8.48;90.30;98498.98;112274;233;169169;-54
2024/04/16 04:44:49;;;;;;;;;22.00;17.67;;;;;8.44;90.51;98507.89;112496;233;39884;-57
2024/04/16 04:47:27;;;;;;;;;17.00;15.00;;;;;8.46;90.33;98513.66;112305;234;170320;-57
2024/04/16 04:50:05;;;;;;;;;18.00;14.00;;;;;8.44;90.27;98513.22;112553;233;40523;-59
2024/04/16 04:52:38;;;;;;;;;17.00;14.00;;;;;8.47;90.29;98517.84;112414;236;170925;-59
2024/04/16 04:55:12;;;;;;;;;16.00;13.00;;;;;8.50;90.18;98517.06;112464;234;40330;-55
2024/04/16 04:57:50;;;;;;;;;17.33;13.00;;;;;8.50;90.25;98521.65;112424;233;40938;-55
2024/04/16 05:00:33;;;;;;;;;15.00;12.00;;;;;8.51;90.20;98521.84;112186;236;170836;-57
2024/04/16 05:03:13;;;;;;;;;12.50;10.00;;;;;8.50;90.25;98527.66;112423;236;39787;-57
2024/04/16 05:05:57;;;;;;;;;13.00;10.50;;;;;8.47;90.11;98531.98;112261;233;173221;-57
2024/04/16 05:08:38;;;;;;;;;11.33;9.00;;;;;8.46;89.88;98540.77;112449;233;40570;-55
2024/04/16 05:11:15;;;;;;;;;12.00;10.00;;;;;8.42;89.70;98547.81;112255;236;169690;-55
2024/04/16 05:13:51;;;;;;;;;8.00;7.00;;;;;8.37;89.50;98567.75;112467;233;42236;-59
2024/04/16 05:16:29;;;;;;;;;7.00;6.00;;;;;8.31;89.11;98575.80;112477;233;40510;-60
2024/04/16 05:19:08;;;;;;;;;4.00;4.00;;;;;8.23;88.62;98595.36;112121;236;39849;-56
2024/04/16 05:21:48;;;;;;;;;4.00;4.00;;;;;8.18;88.13;98607.95;112412;236;40001;-55
2024/04/16 05:24:31;;;;;;;;;2.00;2.00;;;;;8.13;87.72;98621.50;112265;233;169292;-58
2024/04/16 05:27:08;;;;;;;;;1.00;1.00;;;;;8.14;87.19;98632.95;112460;233;40460;-59
2024/04/16 05:29:42;;;;;;;;;1.00;1.00;;;;;8.01;86.71;98638.00;112351;234;169498;-55
2024/04/16 05:32:28;;;;;;;;;2.00;1.00;;;;;7.96;86.31;98642.95;112479;233;40527;-56
2024/04/16 05:35:06;;;;;;;;;2.00;2.00;;;;;7.92;85.92;98637.73;112291;233;168694;-55
2024/04/16 05:37:41;;;;;;;;;2.00;1.00;;;;;7.94;86.01;98637.50;112476;234;40458;-55
2024/04/16 05:40:17;;;;;;;;;2.00;2.00;;;;;7.95;85.82;98646.59;112427;233;39810;-57
2024/04/16 05:42:51;;;;;;;;;1.00;1.00;;;;;7.94;85.92;98653.90;112028;237;168367;-57
2024/04/16 05:45:26;;;;;;;;;1.00;1.00;;;;;7.94;85.56;98654.18;112419;233;40155;-56
2024/04/16 05:48:05;;;;;;;;;1.00;1.00;;;;;7.98;85.50;98654.94;112364;234;169508;-55
2024/04/16 05:50:42;;;;;;;;;2.00;2.00;;;;;8.10;85.46;98646.22;112389;233;40590;-55
2024/04/16 05:53:19;;;;;;;;;2.00;2.00;;;;;8.22;85.21;98652.33;112289;233;170261;-58
2024/04/16 05:55:59;;;;;;;;;2.00;1.33;;;;;8.45;85.21;98655.05;112518;234;41547;-59
2024/04/16 05:58:43;;;;;;;;;2.00;2.00;;;;;8.59;84.36;98647.23;112503;232;40420;-55
2024/04/16 06:01:17;;;;;;;;;1.00;1.00;;;;;8.68;83.92;98655.48;112583;237;41541;-56
2024/04/16 06:03:53;;;;;;;;;2.00;2.00;;;;;8.79;83.71;98660.76;112394;233;40204;-57
2024/04/16 06:06:32;;;;;;;;;2.00;2.00;;;;;8.91;83.48;98665.02;112355;233;169013;-55
2024/04/16 06:09:16;;;;;;;;;2.00;2.00;;;;;9.25;83.38;98658.96;112501;236;40404;-58
2024/04/16 06:11:58;;;;;;;;;1.00;1.00;;;;;10.44;82.96;98648.09;112347;233;168508;-55
2024/04/16 06:14:39;;;;;;;;;1.00;1.00;;;;;11.12;81.18;98658.91;112515;232;39939;-54
2024/04/16 06:17:16;;;;;;;;;3.00;2.00;;;;;11.03;79.81;98668.77;112372;234;169346;-54
2024/04/16 06:19:55;;;;;;;;;2.00;1.00;;;;;10.69;79.11;98672.39;112439;233;40349;-55
2024/04/16 06:22:36;;;;;;;;;2.00;1.00;;;;;10.42;78.25;98670.69;112460;233;40309;-55
2024/04/16 06:25:19;;;;;;;;;2.00;2.00;;;;;10.27;78.09;98666.27;112529;233;39893;-58
2024/04/16 06:27:56;;;;;;;;;2.00;2.00;;;;;9.98;76.69;98671.57;112618;236;40290;-56
2024/04/16 06:30:36;;;;;;;;;2.00;2.00;;;;;9.71;75.98;98686.02;112303;234;169433;-55
2024/04/16 06:33:12;;;;;;;;;2.00;2.00;;;;;9.47;76.53;98691.40;112427;236;40029;-57
2024/04/16 06:35:48;;;;;;;;;2.00;2.00;;;;;9.32;76.70;98697.92;112223;233;169603;-58
2024/04/16 06:38:25;;;;;;;;;2.33;2.00;;;;;9.16;76.74;98702.38;112436;233;40271;-59
2024/04/16 06:41:03;;;;;;;;;3.33;2.00;;;;;9.03;76.73;98714.79;112379;233;169085;-59
2024/04/16 06:43:47;;;;;;;;;2.00;2.00;;;;;8.82;76.34;98720.19;112515;234;40305;-60
2024/04/16 06:46:21;;;;;;;;;1.00;1.00;;;;;8.45;75.95;98717.14;112482;233;40874;-60
2024/04/16 06:49:02;;;;;;;;;1.00;1.00;;;;;8.24;75.99;98719.64;111657;234;903523;-61
2024/04/16 06:51:36;;;;;;;;;2.00;2.00;;;;;8.10;76.37;98714.61;112443;233;40615;-59
2024/04/16 06:54:14;;;;;;;;;1.00;1.00;;;;;8.10;76.38;98720.45;112275;233;168713;-55
2024/04/16 06:56:50;;;;;;;;;1.00;1.00;;;;;8.19;76.44;98723.30;112433;236;40371;-55
2024/04/16 06:59:27;;;;;;;;;1.50;1.00;;;;;8.35;76.63;98722.70;112292;236;169091;-57
2024/04/16 07:02:07;;;;;;;;;2.00;2.00;;;;;8.54;76.76;98723.91;112462;233;39733;-58
2024/04/16 07:04:48;;;;;;;;;1.00;1.00;;;;;8.85;77.31;98716.52;112469;236;42729;-58
2024/04/16 07:07:25;;;;;;;;;3.00;2.00;;;;;9.24;77.04;98722.11;112543;237;39723;-57
2024/04/16 07:10:06;;;;;;;;;4.33;3.00;;;;;9.41;76.41;98713.93;112462;233;40526;-56
2024/04/16 07:12:50;;;;;;;;;4.00;3.00;;;;;9.55;76.14;98706.45;112236;233;169688;-56
2024/04/16 07:15:29;;;;;;;;;3.00;3.00;;;;;9.62;75.65;98708.41;112401;233;39954;-56
2024/04/16 07:18:04;;;;;;;;;2.75;2.00;;;;;9.56;74.99;98709.05;112228;233;168983;-58
2024/04/16 07:20:47;;;;;;;;;3.00;2.75;;;;;9.45;75.07;98709.75;112377;233;41168;-55
2024/04/16 07:23:22;;;;;;;;;4.00;3.00;;;;;9.36;74.86;98711.54;112313;233;169088;-59
2024/04/16 07:25:58;;;;;;;;;4.00;4.00;;;;;9.37;74.41;98722.97;112547;237;39625;-59
2024/04/16 07:28:34;;;;;;;;;2.00;2.00;;;;;9.41;74.17;98723.02;112519;237;40258;-58
2024/04/16 07:31:09;;;;;;;;;4.00;3.00;;;;;9.87;73.89;98726.64;112156;237;168764;-59
2024/04/16 07:33:52;;;;;;;;;1.00;1.00;;;;;10.00;73.40;98735.45;112465;233;40529;-54
2024/04/16 07:36:31;;;;;;;;;3.00;2.00;;;;;9.85;72.40;98734.42;112300;237;169198;-55
2024/04/16 07:39:12;;;;;;;;;3.00;3.00;;;;;9.80;71.61;98750.77;112453;233;40481;-56
2024/04/16 07:41:52;;;;;;;;;3.00;2.00;;;;;9.65;71.21;98750.80;112333;233;169535;-56
2024/04/16 07:44:35;;;;;;;;;2.50;2.00;;;;;9.54;71.86;98749.80;112506;234;41343;-57
2024/04/16 07:47:21;;;;;;;;;2.00;2.00;;;;;9.49;71.46;98747.95;112306;237;169584;-57
2024/04/16 07:50:01;;;;;;;;;3.00;2.50;;;;;9.46;71.07;98753.45;112517;234;41519;-59
2024/04/16 07:52:36;;;;;;;;;4.00;3.00;;;;;9.42;70.90;98752.41;112657;237;41825;-59
2024/04/16 07:55:10;;;;;;;;;4.00;2.00;;;;;9.43;70.58;98766.78;112499;233;168627;-59
2024/04/16 07:57:47;;;;;;;;;3.00;2.00;;;;;9.43;70.43;98769.47;112546;237;41752;-59
2024/04/16 08:00:28;;;;;;;;;1.00;1.00;;;;;9.39;70.35;98762.05;112273;237;169159;-58
2024/04/16 08:03:07;;;;;;;;;1.33;1.33;;;;;9.36;70.06;98771.41;112436;237;40738;-59
2024/04/16 08:05:46;;;;;;;;;4.00;3.00;;;;;9.29;69.72;98766.88;112358;233;172374;-60
2024/04/16 08:08:28;;;;;;;;;3.00;2.00;;;;;9.32;69.72;98761.48;112545;234;41382;-57
2024/04/16 08:11:11;;;;;;;;;3.00;2.00;;;;;9.33;69.69;98764.52;112257;233;169190;-56
2024/04/16 08:13:48;;;;;;;;;2.00;2.00;;;;;9.54;70.02;98753.91;112518;237;40417;-59
2024/04/16 08:16:22;;;;;;;;;3.00;2.00;;;;;9.85;70.00;98755.39;112694;235;42030;-59
2024/04/16 08:19:02;;;;;;;;;2.67;2.00;;;;;10.04;68.92;98748.85;112459;234;169153;-55
2024/04/16 08:21:40;;;;;;;;;3.25;3.00;;;;;10.12;68.67;98746.09;112386;237;40521;-56
2024/04/16 08:24:21;;;;;;;;;3.00;3.00;;;;;10.06;68.29;98741.95;112423;237;170899;-56
2024/04/16 08:26:59;;;;;;;;;2.00;2.00;;;;;10.03;67.92;98736.50;112431;236;40491;-56
2024/04/16 08:29:34;;;;;;;;;3.00;2.00;;;;;10.01;67.87;98739.05;112469;233;169221;-60
2024/04/16 08:32:09;;;;;;;;;4.00;3.00;;;;;10.03;67.21;98738.57;112607;237;41512;-60
2024/04/16 08:34:49;;;;;;;;;4.00;2.00;;;;;10.04;66.82;98745.33;112487;233;40471;-56
2024/04/16 08:37:24;;;;;;;;;2.00;2.00;;;;;10.08;66.75;98745.62;112589;237;42859;-56
2024/04/16 08:40:05;;;;;;;;;3.00;2.00;;;;;10.23;66.45;98744.23;112415;233;41344;-56
2024/04/16 08:42:43;;;;;;;;;3.00;2.00;;;;;10.31;66.22;98745.19;112275;237;169107;-57
2024/04/16 08:45:20;;;;;;;;;2.50;2.50;;;;;10.43;66.65;98745.70;112401;233;40514;-57
2024/04/16 08:48:02;;;;;;;;;3.00;2.67;;;;;10.68;66.03;98754.80;112258;237;169397;-56
2024/04/16 08:50:40;;;;;;;;;2.00;2.00;;;;;10.62;65.68;98766.73;112399;234;41475;-56
2024/04/16 08:53:15;;;;;;;;;3.00;3.00;;;;;10.90;65.25;98786.73;112252;233;169307;-59
2024/04/16 08:55:55;;;;;;;;;2.00;2.00;;;;;10.97;64.22;98797.44;112394;237;40355;-58
2024/04/16 08:58:32;;;;;;;;;3.00;3.00;;;;;10.89;63.30;98810.30;112446;233;40633;-56
2024/04/16 09:01:09;;;;;;;;;1.50;1.00;;;;;10.71;63.60;98824.14;112278;237;169625;-56
2024/04/16 09:03:51;;;;;;;;;4.25;3.00;;;;;10.63;63.28;98826.28;112512;233;40615;-57
2024/04/16 09:06:34;;;;;;;;;3.00;3.00;;;;;10.57;63.01;98829.94;112308;234;169219;-57
2024/04/16 09:09:14;;;;;;;;;5.67;5.00;;;;;10.43;62.49;98836.44;112414;233;40176;-56
2024/04/16 09:11:51;;;;;;;;;5.00;4.00;;;;;10.26;62.25;98840.88;112236;236;169155;-56
2024/04/16 09:14:28;;;;;;;;;4.67;4.00;;;;;10.13;62.45;98845.91;112697;235;40502;-60
2024/04/16 09:17:05;;;;;;;;;4.00;3.00;;;;;10.04;62.40;98859.19;112460;237;169281;-59
2024/04/16 09:19:42;;;;;;;;;3.00;3.00;;;;;10.02;62.78;98869.36;112455;237;40811;-56
2024/04/16 09:22:24;;;;;;;;;3.00;3.00;;;;;10.10;62.43;98871.63;112402;236;40696;-56
2024/04/16 09:25:09;;;;;;;;;3.25;2.00;;;;;10.09;61.75;98881.67;112418;237;168730;-60
2024/04/16 09:27:54;;;;;;;;;4.00;3.00;;;;;10.01;61.83;98889.05;112626;232;41269;-60
2024/04/16 09:30:31;;;;;;;;;5.00;4.00;;;;;9.91;61.18;98889.56;112362;232;169142;-57
2024/04/16 09:33:06;;;;;;;;;3.00;3.00;;;;;9.84;61.39;98896.30;112471;237;40708;-55
2024/04/16 09:35:43;;;;;;;;;5.00;4.00;;;;;9.78;61.50;98899.85;112325;233;169107;-55
2024/04/16 09:38:24;;;;;;;;;3.00;2.67;;;;;9.77;61.73;98902.44;112549;237;41238;-55
2024/04/16 09:41:05;;;;;;;;;4.00;3.00;;;;;9.84;61.83;98905.55;112275;233;169063;-55
2024/04/16 09:43:42;;;;;;;;;4.33;4.00;;;;;9.99;61.78;98908.34;112448;237;41790;-55
2024/04/16 09:46:21;;;;;;;;;4.00;4.00;;;;;10.04;61.51;98904.88;112435;236;40304;-56
2024/04/16 09:48:58;;;;;;;;;4.00;4.00;;;;;9.94;61.63;98911.16;112249;233;169213;-56
2024/04/16 09:51:37;;;;;;;;;6.00;4.00;;;;;10.02;61.45;98905.39;112383;233;40090;-56
2024/04/16 09:54:16;;;;;;;;;5.00;4.00;;;;;10.05;60.94;98904.38;112323;236;169331;-58
2024/04/16 09:56:50;;;;;;;;;7.00;6.00;;;;;9.99;61.48;98905.71;112377;237;40856;-58
2024/04/16 09:59:30;;;;;;;;;7.00;5.25;;;;;10.03;61.29;98903.60;112316;233;169259;-58
2024/04/16 10:02:08;;;;;;;;;6.00;5.00;;;;;10.09;61.47;98908.61;112431;234;40223;-57
2024/04/16 10:04:48;;;;;;;;;6.00;5.00;;;;;10.27;61.81;98906.30;112543;236;40559;-59
2024/04/16 10:07:26;;;;;;;;;6.00;5.00;;;;;10.49;61.75;98912.66;112449;237;168844;-59
2024/04/16 10:10:05;;;;;;;;;4.25;3.75;;;;;10.64;60.83;98908.36;112441;233;40391;-56
2024/04/16 10:12:45;;;;;;;;;3.00;3.00;;;;;10.80;60.87;98909.14;112351;233;168900;-55
2024/04/16 10:15:22;;;;;;;;;6.50;5.75;;;;;10.95;59.21;98891.52;112427;237;40390;-56
2024/04/16 10:18:02;;;;;;;;;5.00;4.00;;;;;10.96;59.19;98892.89;112418;235;169062;-59
2024/04/16 10:20:37;;;;;;;;;4.00;3.75;;;;;11.03;59.52;98894.27;112513;231;40455;-59
2024/04/16 10:23:24;;;;;;;;;4.50;3.75;;;;;11.15;59.46;98892.02;112325;235;169238;-58
2024/04/16 10:26:06;;;;;;;;;3.00;2.25;;;;;11.31;59.03;98882.70;112472;235;40207;-58
2024/04/16 10:28:44;;;;;;;;;3.00;3.00;;;;;11.52;59.06;98884.09;112770;231;40925;-59
2024/04/16 10:31:37;;;;;;;;;3.00;3.00;;;;;11.77;58.97;98889.89;112473;234;169028;-58
2024/04/16 10:34:23;;;;;;;;;4.00;4.00;;;;;11.93;57.96;98895.24;112504;236;39788;-62
2024/04/16 10:37:07;;;;;;;;;5.00;4.00;;;;;11.91;57.69;98901.92;112429;234;169315;-61
2024/04/16 10:39:47;;;;;;;;;4.00;3.00;;;;;12.08;57.50;98901.19;112532;236;39695;-61
2024/04/16 10:42:39;;;;;;;;;4.00;4.00;;;;;12.12;56.77;98903.77;112442;237;169493;-57
2024/04/16 10:45:18;;;;;;;;;2.00;2.00;;;;;12.21;57.17;98895.52;112531;232;41971;-54
2024/04/16 10:47:55;;;;;;;;;3.00;2.25;;;;;12.37;56.88;98889.92;112355;232;170594;-57
2024/04/16 10:50:30;;;;;;;;;2.33;2.00;;;;;12.45;56.63;98883.02;112474;236;40735;-56
2024/04/16 10:53:14;;;;;;;;;3.00;3.00;;;;;12.35;55.96;98883.24;112436;232;169873;-59
2024/04/16 10:55:52;;;;;;;;;2.33;2.00;;;;;12.30;56.23;98867.64;112535;233;40647;-59
2024/04/16 10:58:26;;;;;;;;;3.00;3.00;;;;;12.47;55.94;98860.08;112445;234;40439;-56
2024/04/16 11:01:04;;;;;;;;;3.00;2.00;;;;;12.59;55.35;98863.41;112393;237;169199;-56
2024/04/16 11:03:44;;;;;;;;;3.00;3.00;;;;;12.62;55.41;98851.63;112583;232;40738;-55
2024/04/16 11:06:23;;;;;;;;;4.00;3.00;;;;;12.75;55.08;98845.33;112335;236;169345;-55
2024/04/16 11:09:05;;;;;;;;;3.00;3.00;;;;;12.86;55.22;98856.77;112561;233;40385;-57
2024/04/16 11:11:39;;;;;;;;;2.67;2.00;;;;;12.78;54.71;98864.80;112316;232;170266;-59
2024/04/16 11:14:22;;;;;;;;;3.75;3.00;;;;;12.79;54.95;98858.25;112468;233;41303;-58
2024/04/16 11:16:57;;;;;;;;;4.00;3.00;;;;;12.79;55.10;98847.40;112507;233;40714;-58
2024/04/16 11:19:35;;;;;;;;;5.00;4.00;;;;;12.82;54.86;98864.49;112462;234;42239;-60
2024/04/16 11:22:20;;;;;;;;;4.00;4.00;;;;;12.89;54.38;98867.73;112582;232;40731;-59
2024/04/16 11:24:57;;;;;;;;;4.00;3.00;;;;;12.92;54.12;98876.30;112257;236;169458;-56
2024/04/16 11:27:38;;;;;;;;;4.00;3.50;;;;;12.80;54.08;98873.34;112507;232;40950;-56
2024/04/16 11:30:23;;;;;;;;;5.00;4.00;;;;;12.72;54.10;98872.84;112294;232;169442;-55
2024/04/16 11:32:59;;;;;;;;;5.00;4.00;;;;;12.63;53.74;98874.66;112522;232;41118;-56
2024/04/16 11:35:35;;;;;;;;;4.00;3.00;;;;;12.52;54.02;98877.84;112351;232;169957;-58
2024/04/16 11:38:22;;;;;;;;;3.00;3.00;;;;;12.52;53.30;98887.86;112477;233;39825;-58
2024/04/16 11:41:04;;;;;;;;;5.00;3.75;;;;;12.39;53.16;98887.23;112573;232;42035;-56
2024/04/16 11:43:52;;;;;;;;;4.75;4.00;;;;;12.46;53.87;98882.80;112593;237;40898;-58
2024/04/16 11:46:29;;;;;;;;;5.50;5.00;;;;;12.64;54.13;98875.44;112355;237;40620;-55
2024/04/16 11:49:08;;;;;;;;;4.00;3.00;;;;;12.77;54.01;98873.07;112197;233;169421;-55
2024/04/16 11:51:53;;;;;;;;;4.00;3.00;;;;;12.92;52.86;98876.88;112379;233;40841;-57
2024/04/16 11:54:36;;;;;;;;;4.50;3.50;;;;;12.86;52.09;98875.59;112313;236;169268;-57
2024/04/16 11:57:21;;;;;;;;;3.00;3.00;;;;;12.56;52.66;98879.34;112443;233;42088;-57
2024/04/16 12:00:07;;;;;;;;;6.75;4.75;;;;;12.40;52.82;98878.24;112250;237;169473;-57
2024/04/16 12:02:42;;;;;;;;;6.00;5.00;;;;;12.40;53.04;98875.11;112392;233;40692;-57
2024/04/16 12:05:20;;;;;;;;;4.00;4.00;;;;;12.42;52.78;98869.51;112249;233;169443;-57
2024/04/16 12:07:59;;;;;;;;;4.75;4.25;;;;;12.36;53.26;98878.91;112499;234;40403;-54
2024/04/16 12:10:36;;;;;;;;;6.00;5.00;;;;;12.34;53.25;98877.79;112371;233;40139;-54
2024/04/16 12:13:13;;;;;;;;;5.00;4.00;;;;;12.23;53.01;98878.88;112256;237;169295;-58
2024/04/16 12:15:50;;;;;;;;;7.00;6.00;;;;;12.09;53.28;98884.42;112430;233;41439;-58
2024/04/16 12:18:30;;;;;;;;;4.00;3.00;;;;;11.91;53.52;98887.45;112248;233;169974;-55
2024/04/16 12:21:08;;;;;;;;;3.00;3.00;;;;;11.84;53.77;98890.77;112350;233;40334;-55
2024/04/16 12:23:45;;;;;;;;;5.25;5.00;;;;;11.83;53.68;98892.12;112272;237;169411;-58